Capitol Logistics 212


KRIV
March Air Reserve Base
Riverside, California, US
KSMF
Sacramento International Airport
Sacramento, California, US

Activity Log

Date Flight Route Aircraft Duration
01/31/2019 CPX212 SKYES3 TRM HEC NURAY SUUTR2 B763 1h 29m

Route Details

Aircraft Information
Primary: Boeing 767-300BDSF
Backup: Not Available
Route Data
Distance: 362nm
Sched. Duration: 1h 10m
Avg. Duration: 1h 29m (+19m)
Times Flown: 1
Recm'd Route: SLI J78 LAX J5 LANDO NURAY SUUTR2
Planned Altitude: 36,000ft
Origin Wx: KRIV 210858Z AUTO 00000KT 10SM CLR 07/M02 A3006 RMK AO2 SLPNO T00741023 58009
Dest. Wx: KSMF 210853Z 32003KT 10SM SCT250 09/02 A3009 RMK AO2 SLP190 T00890022 58007
Notes:

Financial History
Total Freight: 106,876lbs
Average Load: 106,876lbs/flt
Fuel Used: 18,155lbs
Avg. Fuel Used: 18,155lbs/flt
Fuel Expense: $12,527
Avg. Fuel Expense: $12,527
Avg. Fuel Cost: $0.69/lbs
Total Gross Income: $129,320
Pilot Pay: $149
Total Expenses: $14,019
Total Revenue: $102,420
Average Revenue: $129,319.96